sensor_id;sensor_type;location;lat;lon;timestamp;pressure;altitude;pressure_sealevel;temperature;humidity
3968;BME280;9221;42.646;23.380;2023-03-04T00:01:10;94487.03;;;6.74;92.50
3968;BME280;9221;42.646;23.380;2023-03-04T00:03:36;94553.06;;;7.20;92.98
3968;BME280;9221;42.646;23.380;2023-03-04T00:06:02;94435.56;;;6.52;93.30
3968;BME280;9221;42.646;23.380;2023-03-04T00:08:27;94545.38;;;7.59;92.40
3968;BME280;9221;42.646;23.380;2023-03-04T00:10:53;94496.13;;;7.32;91.88
3968;BME280;9221;42.646;23.380;2023-03-04T00:13:18;94542.22;;;7.34;91.28
3968;BME280;9221;42.646;23.380;2023-03-04T00:15:46;94444.69;;;7.09;91.47
3968;BME280;9221;42.646;23.380;2023-03-04T00:18:11;94546.50;;;7.76;91.13
3968;BME280;9221;42.646;23.380;2023-03-04T00:20:37;94495.88;;;7.54;90.49
3968;BME280;9221;42.646;23.380;2023-03-04T00:23:02;94559.19;;;7.71;90.32
3968;BME280;9221;42.646;23.380;2023-03-04T00:25:27;94396.03;;;6.86;90.22
3968;BME280;9221;42.646;23.380;2023-03-04T00:27:53;94578.41;;;7.71;90.25
3968;BME280;9221;42.646;23.380;2023-03-04T00:30:18;94487.03;;;7.45;90.10
3968;BME280;9221;42.646;23.380;2023-03-04T00:32:44;94481.22;;;7.42;90.23
3968;BME280;9221;42.646;23.380;2023-03-04T00:35:09;94469.03;;;7.31;89.72
3968;BME280;9221;42.646;23.380;2023-03-04T00:37:34;94482.31;;;7.39;89.85
3968;BME280;9221;42.646;23.380;2023-03-04T00:40:00;94528.28;;;7.74;89.51
3968;BME280;9221;42.646;23.380;2023-03-04T00:42:25;94482.31;;;7.39;89.61
3968;BME280;9221;42.646;23.380;2023-03-04T00:44:51;94549.03;;;7.47;89.49
3968;BME280;9221;42.646;23.380;2023-03-04T00:47:16;94541.66;;;7.71;89.59
3968;BME280;9221;42.646;23.380;2023-03-04T00:49:42;94483.69;;;7.43;89.54
3968;BME280;9221;42.646;23.380;2023-03-04T00:52:07;94566.41;;;7.78;89.47
3968;BME280;9221;42.646;23.380;2023-03-04T00:54:32;94559.50;;;7.77;89.26
3968;BME280;9221;42.646;23.380;2023-03-04T00:56:58;94529.25;;;7.83;89.40
3968;BME280;9221;42.646;23.380;2023-03-04T00:59:23;94490.69;;;7.64;88.91
3968;BME280;9221;42.646;23.380;2023-03-04T01:01:49;94507.81;;;7.68;89.02
3968;BME280;9221;42.646;23.380;2023-03-04T01:04:14;94514.72;;;7.79;89.16
3968;BME280;9221;42.646;23.380;2023-03-04T01:06:39;94485.81;;;7.59;89.00
3968;BME280;9221;42.646;23.380;2023-03-04T01:09:05;94532.16;;;7.90;88.67
3968;BME280;9221;42.646;23.380;2023-03-04T01:11:31;94525.28;;;7.89;88.56
3968;BME280;9221;42.646;23.380;2023-03-04T01:13:56;94519.31;;;7.87;88.59
3968;BME280;9221;42.646;23.380;2023-03-04T01:16:22;94516.00;;;7.85;88.52
3968;BME280;9221;42.646;23.380;2023-03-04T01:18:47;94469.25;;;7.59;89.06
3968;BME280;9221;42.646;23.380;2023-03-04T01:21:12;94496.09;;;7.72;88.55
3968;BME280;9221;42.646;23.380;2023-03-04T01:23:38;94460.25;;;7.52;88.99
3968;BME280;9221;42.646;23.380;2023-03-04T01:26:03;94506.47;;;7.84;88.37
3968;BME280;9221;42.646;23.380;2023-03-04T01:28:29;94528.28;;;7.84;88.47
3968;BME280;9221;42.646;23.380;2023-03-04T01:30:54;94479.91;;;7.67;89.04
3968;BME280;9221;42.646;23.380;2023-03-04T01:33:20;94468.56;;;7.57;88.88
3968;BME280;9221;42.646;23.380;2023-03-04T01:35:45;94492.09;;;7.78;89.20
3968;BME280;9221;42.646;23.380;2023-03-04T01:38:10;94440.25;;;7.51;88.98
3968;BME280;9221;42.646;23.380;2023-03-04T01:40:37;94370.09;;;6.92;88.38
3968;BME280;9221;42.646;23.380;2023-03-04T01:43:03;94499.53;;;7.83;89.28
3968;BME280;9221;42.646;23.380;2023-03-04T01:45:30;94458.19;;;7.45;88.84
3968;BME280;9221;42.646;23.380;2023-03-04T01:47:56;94438.69;;;7.38;88.82
3968;BME280;9221;42.646;23.380;2023-03-04T01:50:33;94485.69;;;7.71;88.53
3968;BME280;9221;42.646;23.380;2023-03-04T01:52:59;94476.06;;;7.71;88.67
3968;BME280;9221;42.646;23.380;2023-03-04T01:55:25;94459.72;;;7.48;88.37
3968;BME280;9221;42.646;23.380;2023-03-04T01:57:51;94436.91;;;7.39;88.61
3968;BME280;9221;42.646;23.380;2023-03-04T02:03:05;94495.38;;;7.70;88.21
3968;BME280;9221;42.646;23.380;2023-03-04T02:05:33;94499.25;;;7.76;88.09
3968;BME280;9221;42.646;23.380;2023-03-04T02:08:00;94469.28;;;7.69;87.69
3968;BME280;9221;42.646;23.380;2023-03-04T02:10:26;94417.97;;;7.35;87.86
3968;BME280;9221;42.646;23.380;2023-03-04T02:12:52;94495.66;;;7.77;87.22
3968;BME280;9221;42.646;23.380;2023-03-04T02:15:18;94481.31;;;7.71;87.18
3968;BME280;9221;42.646;23.380;2023-03-04T02:17:44;94451.13;;;7.56;87.37
3968;BME280;9221;42.646;23.380;2023-03-04T02:23:15;94479.38;;;7.83;87.03
3968;BME280;9221;42.646;23.380;2023-03-04T02:25:49;94478.81;;;7.79;86.94
3968;BME280;9221;42.646;23.380;2023-03-04T02:28:17;94463.47;;;7.75;86.92
3968;BME280;9221;42.646;23.380;2023-03-04T02:30:43;94482.13;;;7.82;87.00
3968;BME280;9221;42.646;23.380;2023-03-04T02:33:17;94482.84;;;7.84;87.30
3968;BME280;9221;42.646;23.380;2023-03-04T02:35:44;94479.94;;;7.77;87.23
3968;BME280;9221;42.646;23.380;2023-03-04T02:38:10;94418.53;;;7.39;86.94
3968;BME280;9221;42.646;23.380;2023-03-04T02:40:38;94451.84;;;7.58;87.58
3968;BME280;9221;42.646;23.380;2023-03-04T02:43:04;94443.97;;;7.48;87.23
3968;BME280;9221;42.646;23.380;2023-03-04T02:48:05;94518.72;;;7.63;87.23
3968;BME280;9221;42.646;23.380;2023-03-04T02:50:36;94497.19;;;7.70;87.25
3968;BME280;9221;42.646;23.380;2023-03-04T02:53:02;94473.16;;;7.74;87.38
3968;BME280;9221;42.646;23.380;2023-03-04T02:55:28;94477.16;;;7.78;87.18
3968;BME280;9221;42.646;23.380;2023-03-04T02:57:53;94474.81;;;7.75;86.89
3968;BME280;9221;42.646;23.380;2023-03-04T03:00:19;94466.06;;;7.65;86.65
3968;BME280;9221;42.646;23.380;2023-03-04T03:02:44;94337.25;;;6.78;86.80
3968;BME280;9221;42.646;23.380;2023-03-04T03:05:11;94498.28;;;7.67;87.00
3968;BME280;9221;42.646;23.380;2023-03-04T03:07:36;94493.06;;;7.36;86.61
3968;BME280;9221;42.646;23.380;2023-03-04T03:10:03;94497.06;;;7.71;87.06
3968;BME280;9221;42.646;23.380;2023-03-04T03:12:28;94466.94;;;7.75;86.54
3968;BME280;9221;42.646;23.380;2023-03-04T03:14:54;94342.47;;;6.78;85.79
3968;BME280;9221;42.646;23.380;2023-03-04T03:17:19;94410.69;;;6.98;87.01
3968;BME280;9221;42.646;23.380;2023-03-04T03:19:44;94469.00;;;7.21;87.94
3968;BME280;9221;42.646;23.380;2023-03-04T03:22:10;94474.03;;;7.34;88.53
3968;BME280;9221;42.646;23.380;2023-03-04T03:24:35;94445.13;;;7.24;88.13
3968;BME280;9221;42.646;23.380;2023-03-04T03:27:00;94477.81;;;7.20;87.31
3968;BME280;9221;42.646;23.380;2023-03-04T03:29:26;94414.53;;;6.94;88.66
3968;BME280;9221;42.646;23.380;2023-03-04T03:31:51;94460.03;;;7.24;88.68
3968;BME280;9221;42.646;23.380;2023-03-04T03:34:17;94460.47;;;7.29;88.58
3968;BME280;9221;42.646;23.380;2023-03-04T03:36:42;94449.06;;;6.99;88.26
3968;BME280;9221;42.646;23.380;2023-03-04T03:39:07;94455.13;;;7.50;88.07
3968;BME280;9221;42.646;23.380;2023-03-04T03:41:33;94443.41;;;7.44;87.67
3968;BME280;9221;42.646;23.380;2023-03-04T03:43:58;94480.72;;;7.58;87.49
3968;BME280;9221;42.646;23.380;2023-03-04T03:46:24;94482.09;;;7.62;87.24
3968;BME280;9221;42.646;23.380;2023-03-04T03:48:49;94418.38;;;7.40;87.09
3968;BME280;9221;42.646;23.380;2023-03-04T03:51:14;94451.25;;;7.44;86.80
3968;BME280;9221;42.646;23.380;2023-03-04T03:53:40;94474.72;;;7.36;86.57
3968;BME280;9221;42.646;23.380;2023-03-04T03:56:05;94443.06;;;7.28;87.05
3968;BME280;9221;42.646;23.380;2023-03-04T03:58:31;94392.34;;;6.98;87.08
3968;BME280;9221;42.646;23.380;2023-03-04T04:00:56;94449.34;;;7.37;87.07
3968;BME280;9221;42.646;23.380;2023-03-04T04:03:22;94437.41;;;7.23;87.56
3968;BME280;9221;42.646;23.380;2023-03-04T04:05:47;94384.41;;;6.78;87.76
3968;BME280;9221;42.646;23.380;2023-03-04T04:08:14;94382.13;;;6.64;87.68
3968;BME280;9221;42.646;23.380;2023-03-04T04:10:40;94444.09;;;6.96;88.09
3968;BME280;9221;42.646;23.380;2023-03-04T04:13:05;94481.47;;;6.67;88.70
3968;BME280;9221;42.646;23.380;2023-03-04T04:15:31;94477.00;;;6.58;89.50
3968;BME280;9221;42.646;23.380;2023-03-04T04:17:56;94346.31;;;5.70;90.53
3968;BME280;9221;42.646;23.380;2023-03-04T04:20:22;94490.84;;;6.28;90.71
3968;BME280;9221;42.646;23.380;2023-03-04T04:22:47;94435.66;;;6.40;91.20
3968;BME280;9221;42.646;23.380;2023-03-04T04:25:12;94390.88;;;6.01;91.06
3968;BME280;9221;42.646;23.380;2023-03-04T04:27:38;94449.72;;;6.18;91.74
3968;BME280;9221;42.646;23.380;2023-03-04T04:30:04;94442.41;;;6.22;91.70
3968;BME280;9221;42.646;23.380;2023-03-04T04:32:29;94440.91;;;6.19;91.80
3968;BME280;9221;42.646;23.380;2023-03-04T04:34:55;94382.19;;;5.80;91.87
3968;BME280;9221;42.646;23.380;2023-03-04T04:37:20;94447.22;;;6.17;92.08
3968;BME280;9221;42.646;23.380;2023-03-04T04:39:45;94469.81;;;5.85;92.39
3968;BME280;9221;42.646;23.380;2023-03-04T04:42:11;94469.19;;;6.04;92.16
3968;BME280;9221;42.646;23.380;2023-03-04T04:44:36;94450.84;;;6.04;92.13
3968;BME280;9221;42.646;23.380;2023-03-04T04:47:04;94475.75;;;5.87;92.32
3968;BME280;9221;42.646;23.380;2023-03-04T04:49:31;94470.38;;;5.89;93.03
3968;BME280;9221;42.646;23.380;2023-03-04T04:51:56;94279.59;;;4.90;91.91
3968;BME280;9221;42.646;23.380;2023-03-04T04:54:21;94394.88;;;5.52;91.27
3968;BME280;9221;42.646;23.380;2023-03-04T04:56:47;94470.72;;;5.63;90.94
3968;BME280;9221;42.646;23.380;2023-03-04T04:59:12;94457.75;;;5.62;90.63
3968;BME280;9221;42.646;23.380;2023-03-04T05:01:38;94469.28;;;5.59;90.27
3968;BME280;9221;42.646;23.380;2023-03-04T05:04:03;94443.63;;;5.53;90.58
3968;BME280;9221;42.646;23.380;2023-03-04T05:06:29;94457.75;;;5.62;90.61
3968;BME280;9221;42.646;23.380;2023-03-04T05:08:54;94401.41;;;5.25;90.06
3968;BME280;9221;42.646;23.380;2023-03-04T05:11:20;94442.81;;;5.52;89.94
3968;BME280;9221;42.646;23.380;2023-03-04T05:13:46;94466.91;;;5.67;89.56
3968;BME280;9221;42.646;23.380;2023-03-04T05:16:11;94417.31;;;5.33;88.87
3968;BME280;9221;42.646;23.380;2023-03-04T05:18:37;94460.22;;;5.74;89.07
3968;BME280;9221;42.646;23.380;2023-03-04T05:21:03;94417.94;;;5.58;89.17
3968;BME280;9221;42.646;23.380;2023-03-04T05:23:32;94414.81;;;5.64;88.37
3968;BME280;9221;42.646;23.380;2023-03-04T05:25:58;94477.81;;;5.72;88.08
3968;BME280;9221;42.646;23.380;2023-03-04T05:28:23;94439.28;;;5.74;87.93
3968;BME280;9221;42.646;23.380;2023-03-04T05:30:49;94447.34;;;5.83;87.50
3968;BME280;9221;42.646;23.380;2023-03-04T05:33:15;94482.63;;;6.00;87.31
3968;BME280;9221;42.646;23.380;2023-03-04T05:35:42;94472.50;;;5.95;87.03
3968;BME280;9221;42.646;23.380;2023-03-04T05:38:11;94500.38;;;5.85;86.95
3968;BME280;9221;42.646;23.380;2023-03-04T05:40:37;94481.09;;;5.86;87.20
3968;BME280;9221;42.646;23.380;2023-03-04T05:43:03;94523.50;;;6.12;87.14
3968;BME280;9221;42.646;23.380;2023-03-04T05:45:28;94438.53;;;5.84;86.39
3968;BME280;9221;42.646;23.380;2023-03-04T05:47:54;94460.13;;;5.97;86.11
3968;BME280;9221;42.646;23.380;2023-03-04T05:50:21;94457.75;;;5.94;85.85
3968;BME280;9221;42.646;23.380;2023-03-04T05:52:47;94439.97;;;5.76;86.60
3968;BME280;9221;42.646;23.380;2023-03-04T05:55:13;94509.72;;;6.10;86.59
3968;BME280;9221;42.646;23.380;2023-03-04T05:57:39;94494.59;;;6.14;86.47
3968;BME280;9221;42.646;23.380;2023-03-04T06:00:06;94450.91;;;5.82;86.36
3968;BME280;9221;42.646;23.380;2023-03-04T06:02:34;94495.34;;;6.04;86.67
3968;BME280;9221;42.646;23.380;2023-03-04T06:04:59;94445.94;;;5.79;87.05
3968;BME280;9221;42.646;23.380;2023-03-04T06:07:25;94446.63;;;5.81;87.14
3968;BME280;9221;42.646;23.380;2023-03-04T06:09:50;94482.66;;;6.21;86.79
3968;BME280;9221;42.646;23.380;2023-03-04T06:12:16;94505.91;;;6.35;86.63
3968;BME280;9221;42.646;23.380;2023-03-04T06:14:41;94533.38;;;6.41;86.91
3968;BME280;9221;42.646;23.380;2023-03-04T06:17:06;94505.28;;;6.43;85.82
3968;BME280;9221;42.646;23.380;2023-03-04T06:19:32;94514.09;;;6.42;85.54
3968;BME280;9221;42.646;23.380;2023-03-04T06:21:58;94507.28;;;6.51;85.68
3968;BME280;9221;42.646;23.380;2023-03-04T06:24:23;94541.53;;;6.59;85.58
3968;BME280;9221;42.646;23.380;2023-03-04T06:26:48;94504.53;;;6.52;84.69
3968;BME280;9221;42.646;23.380;2023-03-04T06:29:14;94490.66;;;6.40;85.03
3968;BME280;9221;42.646;23.380;2023-03-04T06:31:39;94538.00;;;6.28;85.56
3968;BME280;9221;42.646;23.380;2023-03-04T06:34:08;94473.47;;;6.26;85.75
3968;BME280;9221;42.646;23.380;2023-03-04T06:36:34;94547.66;;;6.69;85.54
3968;BME280;9221;42.646;23.380;2023-03-04T06:39:04;94451.91;;;6.34;85.85
3968;BME280;9221;42.646;23.380;2023-03-04T06:41:30;94535.78;;;6.65;85.52
3968;BME280;9221;42.646;23.380;2023-03-04T06:43:55;94487.09;;;6.41;85.97
3968;BME280;9221;42.646;23.380;2023-03-04T06:46:22;94500.13;;;6.53;85.84
3968;BME280;9221;42.646;23.380;2023-03-04T06:48:47;94520.81;;;6.56;86.16
3968;BME280;9221;42.646;23.380;2023-03-04T06:51:13;94513.84;;;6.45;86.73
3968;BME280;9221;42.646;23.380;2023-03-04T06:53:39;94423.78;;;5.83;86.56
3968;BME280;9221;42.646;23.380;2023-03-04T06:56:06;94474.09;;;6.19;87.38
3968;BME280;9221;42.646;23.380;2023-03-04T06:58:31;94464.34;;;6.21;87.50
3968;BME280;9221;42.646;23.380;2023-03-04T07:01:14;94561.84;;;6.67;87.54
3968;BME280;9221;42.646;23.380;2023-03-04T07:03:41;94562.94;;;6.64;86.70
3968;BME280;9221;42.646;23.380;2023-03-04T07:06:10;94506.09;;;6.43;86.97
3968;BME280;9221;42.646;23.380;2023-03-04T07:08:35;94523.75;;;6.41;87.48
3968;BME280;9221;42.646;23.380;2023-03-04T07:11:01;94569.50;;;6.37;87.65
3968;BME280;9221;42.646;23.380;2023-03-04T07:13:26;94517.13;;;6.37;88.54
3968;BME280;9221;42.646;23.380;2023-03-04T07:15:52;94541.84;;;6.44;88.46
3968;BME280;9221;42.646;23.380;2023-03-04T07:18:17;94501.84;;;6.42;88.13
3968;BME280;9221;42.646;23.380;2023-03-04T07:20:43;94526.44;;;6.51;88.03
3968;BME280;9221;42.646;23.380;2023-03-04T07:23:08;94538.94;;;6.48;87.92
3968;BME280;9221;42.646;23.380;2023-03-04T07:25:34;94556.97;;;6.41;88.72
3968;BME280;9221;42.646;23.380;2023-03-04T07:27:59;94466.31;;;5.96;89.17
3968;BME280;9221;42.646;23.380;2023-03-04T07:30:25;94532.81;;;6.37;89.26
3968;BME280;9221;42.646;23.380;2023-03-04T07:32:50;94551.69;;;6.52;89.69
3968;BME280;9221;42.646;23.380;2023-03-04T07:35:16;94541.56;;;6.48;89.68
3968;BME280;9221;42.646;23.380;2023-03-04T07:37:41;94538.19;;;6.57;90.29
3968;BME280;9221;42.646;23.380;2023-03-04T07:40:07;94506.97;;;6.44;90.72
3968;BME280;9221;42.646;23.380;2023-03-04T07:42:33;94535.78;;;6.65;90.64
3968;BME280;9221;42.646;23.380;2023-03-04T07:44:58;94539.53;;;6.72;91.00
3968;BME280;9221;42.646;23.380;2023-03-04T07:47:26;94478.84;;;6.46;89.98
3968;BME280;9221;42.646;23.380;2023-03-04T07:49:51;94474.75;;;6.53;90.50
3968;BME280;9221;42.646;23.380;2023-03-04T07:52:17;94468.88;;;6.61;90.15
3968;BME280;9221;42.646;23.380;2023-03-04T07:54:43;94532.56;;;6.83;89.49
3968;BME280;9221;42.646;23.380;2023-03-04T07:57:08;94515.66;;;6.66;89.98
3968;BME280;9221;42.646;23.380;2023-03-04T07:59:34;94531.13;;;6.69;89.68
3968;BME280;9221;42.646;23.380;2023-03-04T08:01:59;94550.16;;;6.71;90.33
3968;BME280;9221;42.646;23.380;2023-03-04T08:04:25;94520.25;;;6.73;90.73
3968;BME280;9221;42.646;23.380;2023-03-04T08:06:50;94531.81;;;6.92;90.46
3968;BME280;9221;42.646;23.380;2023-03-04T08:09:15;94453.22;;;6.50;90.84
3968;BME280;9221;42.646;23.380;2023-03-04T08:11:42;94530.78;;;7.04;90.22
3968;BME280;9221;42.646;23.380;2023-03-04T08:14:07;94602.78;;;7.00;90.28
3968;BME280;9221;42.646;23.380;2023-03-04T08:16:33;94516.94;;;7.02;90.19
3968;BME280;9221;42.646;23.380;2023-03-04T08:19:00;94554.63;;;7.01;89.30
3968;BME280;9221;42.646;23.380;2023-03-04T08:21:27;94464.66;;;6.70;89.83
3968;BME280;9221;42.646;23.380;2023-03-04T08:23:53;94506.50;;;7.12;89.81
3968;BME280;9221;42.646;23.380;2023-03-04T08:26:25;94552.19;;;7.40;88.75
3968;BME280;9221;42.646;23.380;2023-03-04T08:28:52;94560.78;;;7.42;88.00
3968;BME280;9221;42.646;23.380;2023-03-04T08:31:18;94519.91;;;7.50;87.79
3968;BME280;9221;42.646;23.380;2023-03-04T08:33:44;94522.19;;;7.64;87.79
3968;BME280;9221;42.646;23.380;2023-03-04T08:36:10;94456.34;;;7.36;87.38
3968;BME280;9221;42.646;23.380;2023-03-04T08:38:36;94457.91;;;7.49;86.95
3968;BME280;9221;42.646;23.380;2023-03-04T08:41:02;94522.22;;;7.93;86.32
3968;BME280;9221;42.646;23.380;2023-03-04T08:43:28;94569.81;;;8.20;85.77
3968;BME280;9221;42.646;23.380;2023-03-04T08:45:54;94502.66;;;8.27;85.45
3968;BME280;9221;42.646;23.380;2023-03-04T08:48:20;94555.75;;;8.50;84.69
3968;BME280;9221;42.646;23.380;2023-03-04T08:50:47;94538.34;;;8.59;83.81
3968;BME280;9221;42.646;23.380;2023-03-04T08:53:13;94486.44;;;8.41;83.13
3968;BME280;9221;42.646;23.380;2023-03-04T08:55:39;94511.06;;;8.70;82.54
3968;BME280;9221;42.646;23.380;2023-03-04T08:58:05;94498.09;;;8.58;82.32
3968;BME280;9221;42.646;23.380;2023-03-04T09:00:32;94429.63;;;8.30;82.04
3968;BME280;9221;42.646;23.380;2023-03-04T09:02:58;94477.47;;;8.54;81.09
3968;BME280;9221;42.646;23.380;2023-03-04T09:05:23;94506.50;;;8.72;81.01
3968;BME280;9221;42.646;23.380;2023-03-04T09:07:49;94511.59;;;8.83;81.13
3968;BME280;9221;42.646;23.380;2023-03-04T09:10:14;94445.66;;;8.67;80.54
3968;BME280;9221;42.646;23.380;2023-03-04T09:12:40;94501.16;;;9.11;79.52
3968;BME280;9221;42.646;23.380;2023-03-04T09:15:06;94492.16;;;9.13;80.22
3968;BME280;9221;42.646;23.380;2023-03-04T09:17:32;94447.00;;;8.61;80.67
3968;BME280;9221;42.646;23.380;2023-03-04T09:19:57;94497.47;;;8.94;80.84
3968;BME280;9221;42.646;23.380;2023-03-04T09:22:23;94491.50;;;8.92;80.88
3968;BME280;9221;42.646;23.380;2023-03-04T09:24:48;94436.25;;;8.54;81.27
3968;BME280;9221;42.646;23.380;2023-03-04T09:27:14;94375.72;;;8.17;80.69
3968;BME280;9221;42.646;23.380;2023-03-04T09:29:39;94492.22;;;8.94;80.76
3968;BME280;9221;42.646;23.380;2023-03-04T09:32:05;94476.03;;;8.89;79.86
3968;BME280;9221;42.646;23.380;2023-03-04T09:34:30;94479.84;;;9.04;80.00
3968;BME280;9221;42.646;23.380;2023-03-04T09:36:56;94509.25;;;8.70;79.60
3968;BME280;9221;42.646;23.380;2023-03-04T09:39:21;94516.13;;;9.10;79.57
3968;BME280;9221;42.646;23.380;2023-03-04T09:41:49;94443.47;;;8.90;79.59
3968;BME280;9221;42.646;23.380;2023-03-04T09:44:23;94517.41;;;9.34;79.40
3968;BME280;9221;42.646;23.380;2023-03-04T09:46:51;94484.22;;;9.23;78.30
3968;BME280;9221;42.646;23.380;2023-03-04T09:49:20;94422.44;;;8.90;78.67
3968;BME280;9221;42.646;23.380;2023-03-04T10:00:13;94470.41;;;9.67;76.27
3968;BME280;9221;42.646;23.380;2023-03-04T10:05:27;94437.91;;;9.58;76.17
3968;BME280;9221;42.646;23.380;2023-03-04T10:07:58;94420.25;;;9.69;75.70
3968;BME280;9221;42.646;23.380;2023-03-04T10:10:29;94410.84;;;9.66;75.47
3968;BME280;9221;42.646;23.380;2023-03-04T10:12:56;94411.13;;;9.63;75.54
3968;BME280;9221;42.646;23.380;2023-03-04T10:18:02;94405.13;;;9.25;75.58
3968;BME280;9221;42.646;23.380;2023-03-04T10:20:46;94404.78;;;9.10;75.93
3968;BME280;9221;42.646;23.380;2023-03-04T10:23:20;94476.31;;;9.51;75.82
3968;BME280;9221;42.646;23.380;2023-03-04T10:25:46;94451.09;;;9.58;75.48
3968;BME280;9221;42.646;23.380;2023-03-04T10:28:20;94467.13;;;9.65;75.68
3968;BME280;9221;42.646;23.380;2023-03-04T10:31:20;94472.91;;;9.69;75.82
3968;BME280;9221;42.646;23.380;2023-03-04T10:33:47;94428.28;;;9.67;75.88
3968;BME280;9221;42.646;23.380;2023-03-04T10:38:56;94456.91;;;9.98;74.67
3968;BME280;9221;42.646;23.380;2023-03-04T10:41:26;94431.00;;;10.11;74.01
3968;BME280;9221;42.646;23.380;2023-03-04T10:44:11;94449.91;;;10.25;73.79
3968;BME280;9221;42.646;23.380;2023-03-04T10:46:44;94426.19;;;10.25;73.48
3968;BME280;9221;42.646;23.380;2023-03-04T10:49:12;94418.66;;;10.30;73.11
3968;BME280;9221;42.646;23.380;2023-03-04T10:52:03;94408.16;;;10.56;72.44
3968;BME280;9221;42.646;23.380;2023-03-04T10:54:46;94361.34;;;10.32;72.08
3968;BME280;9221;42.646;23.380;2023-03-04T10:57:18;94396.16;;;10.62;71.85
3968;BME280;9221;42.646;23.380;2023-03-04T11:02:27;94406.81;;;10.78;71.82
3968;BME280;9221;42.646;23.380;2023-03-04T11:07:50;94380.28;;;10.54;72.54
3968;BME280;9221;42.646;23.380;2023-03-04T11:10:20;94334.00;;;10.33;72.38
3968;BME280;9221;42.646;23.380;2023-03-04T11:12:52;94396.91;;;10.72;71.34
3968;BME280;9221;42.646;23.380;2023-03-04T11:15:22;94400.81;;;10.68;71.66
3968;BME280;9221;42.646;23.380;2023-03-04T11:17:55;94320.56;;;10.36;71.53
3968;BME280;9221;42.646;23.380;2023-03-04T11:20:29;94358.00;;;10.48;71.97
3968;BME280;9221;42.646;23.380;2023-03-04T11:23:03;94407.00;;;11.11;71.59
3968;BME280;9221;42.646;23.380;2023-03-04T11:25:39;94289.09;;;11.20;70.75
3968;BME280;9221;42.646;23.380;2023-03-04T11:30:43;94397.25;;;11.12;69.31
3968;BME280;9221;42.646;23.380;2023-03-04T11:38:49;94288.13;;;11.29;68.98
3968;BME280;9221;42.646;23.380;2023-03-04T11:41:20;94282.94;;;10.95;68.36
3968;BME280;9221;42.646;23.380;2023-03-04T11:43:49;94326.53;;;11.15;69.49
3968;BME280;9221;42.646;23.380;2023-03-04T11:46:45;94333.19;;;11.44;68.57
3968;BME280;9221;42.646;23.380;2023-03-04T11:52:08;94333.22;;;11.69;67.32
3968;BME280;9221;42.646;23.380;2023-03-04T11:55:36;94323.66;;;11.84;66.80
3968;BME280;9221;42.646;23.380;2023-03-04T12:01:01;94301.41;;;11.95;66.02
3968;BME280;9221;42.646;23.380;2023-03-04T12:03:49;94244.06;;;11.38;66.20
3968;BME280;9221;42.646;23.380;2023-03-04T12:06:45;94317.72;;;11.58;66.77
3968;BME280;9221;42.646;23.380;2023-03-04T12:09:42;94332.72;;;11.57;66.85
3968;BME280;9221;42.646;23.380;2023-03-04T12:17:42;94294.25;;;11.63;66.67
3968;BME280;9221;42.646;23.380;2023-03-04T12:28:52;94253.66;;;11.47;66.43
3968;BME280;9221;42.646;23.380;2023-03-04T12:31:34;94321.97;;;11.50;66.58
3968;BME280;9221;42.646;23.380;2023-03-04T12:34:50;94290.91;;;11.20;67.67
3968;BME280;9221;42.646;23.380;2023-03-04T12:37:00;94294.31;;;11.04;68.67
3968;BME280;9221;42.646;23.380;2023-03-04T12:45:45;94279.13;;;11.06;69.25
3968;BME280;9221;42.646;23.380;2023-03-04T12:48:34;94213.25;;;10.71;69.20
3968;BME280;9221;42.646;23.380;2023-03-04T12:59:03;94271.22;;;11.06;70.06
3968;BME280;9221;42.646;23.380;2023-03-04T13:01:40;94195.47;;;10.65;70.09
3968;BME280;9221;42.646;23.380;2023-03-04T13:04:24;94274.88;;;11.05;70.44
3968;BME280;9221;42.646;23.380;2023-03-04T13:07:11;94283.91;;;10.94;70.49
3968;BME280;9221;42.646;23.380;2023-03-04T13:09:48;94240.66;;;10.87;70.04
3968;BME280;9221;42.646;23.380;2023-03-04T13:12:22;94238.34;;;10.83;70.93
3968;BME280;9221;42.646;23.380;2023-03-04T13:20:40;94242.47;;;10.78;70.37
3968;BME280;9221;42.646;23.380;2023-03-04T13:28:15;94177.53;;;10.34;70.88
3968;BME280;9221;42.646;23.380;2023-03-04T13:38:34;94292.88;;;10.66;71.55
3968;BME280;9221;42.646;23.380;2023-03-04T13:41:21;94229.75;;;10.65;71.08
3968;BME280;9221;42.646;23.380;2023-03-04T13:43:50;94264.69;;;10.67;70.92
3968;BME280;9221;42.646;23.380;2023-03-04T13:54:32;94214.94;;;10.80;72.14
3968;BME280;9221;42.646;23.380;2023-03-04T14:04:36;94217.59;;;10.89;72.33
3968;BME280;9221;42.646;23.380;2023-03-04T14:07:31;94208.53;;;10.91;72.08
3968;BME280;9221;42.646;23.380;2023-03-04T14:13:15;94206.69;;;10.75;72.24
3968;BME280;9221;42.646;23.380;2023-03-04T14:15:33;94168.38;;;10.46;71.72
3968;BME280;9221;42.646;23.380;2023-03-04T14:18:01;94144.97;;;10.43;72.04
3968;BME280;9221;42.646;23.380;2023-03-04T14:20:36;94138.38;;;10.47;71.96
3968;BME280;9221;42.646;23.380;2023-03-04T14:25:50;94149.94;;;10.55;71.65
3968;BME280;9221;42.646;23.380;2023-03-04T14:28:19;94173.53;;;10.64;72.14
3968;BME280;9221;42.646;23.380;2023-03-04T14:30:57;94220.59;;;10.94;72.38
3968;BME280;9221;42.646;23.380;2023-03-04T14:33:29;94219.63;;;11.03;71.85
3968;BME280;9221;42.646;23.380;2023-03-04T14:35:58;94123.91;;;10.60;71.95
3968;BME280;9221;42.646;23.380;2023-03-04T14:40:52;94182.53;;;11.13;71.22
3968;BME280;9221;42.646;23.380;2023-03-04T14:43:20;94119.66;;;10.83;70.69
3968;BME280;9221;42.646;23.380;2023-03-04T14:45:50;94093.75;;;10.54;70.62
3968;BME280;9221;42.646;23.380;2023-03-04T14:48:23;94121.31;;;10.84;70.60
3968;BME280;9221;42.646;23.380;2023-03-04T14:50:52;94169.81;;;11.08;70.07
3968;BME280;9221;42.646;23.380;2023-03-04T14:53:20;94193.22;;;11.03;71.02
3968;BME280;9221;42.646;23.380;2023-03-04T14:55:56;94199.50;;;11.02;71.12
3968;BME280;9221;42.646;23.380;2023-03-04T14:58:26;94016.53;;;10.11;71.41
3968;BME280;9221;42.646;23.380;2023-03-04T15:03:29;94099.03;;;10.62;71.35
3968;BME280;9221;42.646;23.380;2023-03-04T15:06:05;94152.97;;;10.93;71.07
3968;BME280;9221;42.646;23.380;2023-03-04T15:08:36;94101.84;;;10.53;71.30
3968;BME280;9221;42.646;23.380;2023-03-04T15:11:06;94104.59;;;10.51;71.68
3968;BME280;9221;42.646;23.380;2023-03-04T15:13:53;94048.00;;;10.12;71.69
3968;BME280;9221;42.646;23.380;2023-03-04T15:16:21;94149.16;;;10.79;71.45
3968;BME280;9221;42.646;23.380;2023-03-04T15:19:05;94146.00;;;10.67;71.59
3968;BME280;9221;42.646;23.380;2023-03-04T15:21:40;94132.81;;;10.59;72.33
3968;BME280;9221;42.646;23.380;2023-03-04T15:24:08;94136.41;;;10.58;72.13